createdAt,value
2022-10-13T04:13:56.992Z,33.22
2022-10-13T04:17:00.093Z,35.28
2022-10-13T04:20:03.406Z,32.22
2022-10-13T04:23:07.439Z,32.22
2022-10-13T04:26:20.562Z,30.50
2022-10-13T04:29:24.118Z,29.75
2022-10-13T04:32:27.855Z,28.17
2022-10-13T04:35:30.826Z,26.98
2022-10-13T04:38:33.388Z,28.00
2022-10-13T04:41:36.357Z,27.13
2022-10-13T04:44:38.735Z,27.95
2022-10-13T04:47:42.848Z,27.10
2022-10-13T04:50:45.232Z,26.17
2022-10-13T04:53:48.444Z,27.95
2022-10-13T04:56:52.184Z,26.25
2022-10-13T04:59:55.014Z,26.10
2022-10-13T05:02:57.463Z,25.52
2022-10-13T05:06:00.744Z,24.63
2022-10-13T05:09:04.077Z,25.80
2022-10-13T05:12:06.870Z,25.73
2022-10-13T05:15:09.748Z,24.90
2022-10-13T05:18:12.360Z,25.92
2022-10-13T05:21:18.710Z,25.25
2022-10-13T05:24:30.979Z,24.60
2022-10-13T05:27:33.590Z,25.27
2022-10-13T05:30:37.002Z,25.10
2022-10-13T05:33:39.863Z,25.10
2022-10-13T05:36:42.598Z,25.52
2022-10-13T05:39:48.645Z,25.48
2022-10-13T05:42:52.577Z,24.95
2022-10-13T05:45:55.276Z,24.80
2022-10-13T05:48:58.444Z,24.00
2022-10-13T05:52:07.481Z,24.17
2022-10-13T05:55:13.327Z,24.20
2022-10-13T05:58:16.012Z,24.02
2022-10-13T06:01:24.713Z,24.08
2022-10-13T06:04:41.965Z,23.98
2022-10-13T06:07:46.469Z,24.73
2022-10-13T06:14:24.576Z,24.67
2022-10-13T06:17:27.255Z,24.37
2022-10-13T06:20:29.832Z,24.35
2022-10-13T06:23:32.543Z,24.50
2022-10-13T06:26:35.093Z,24.15
2022-10-13T06:29:37.925Z,24.45
2022-10-13T06:32:40.425Z,23.62
2022-10-13T06:35:43.171Z,23.83
2022-10-13T06:38:47.526Z,22.65
2022-10-13T06:41:50.934Z,23.02
2022-10-13T06:44:55.475Z,22.83
2022-10-13T06:47:58.716Z,22.90
2022-10-13T06:51:03.014Z,23.35
2022-10-13T06:54:05.914Z,23.45
2022-10-13T06:57:11.934Z,23.15
2022-10-13T07:00:14.941Z,21.87
2022-10-13T07:03:17.670Z,24.05
2022-10-13T07:06:20.938Z,22.73
2022-10-13T07:09:25.219Z,24.30
2022-10-13T07:12:27.937Z,23.75
2022-10-13T07:15:30.617Z,23.77
2022-10-13T07:18:33.335Z,23.75
2022-10-13T07:21:35.859Z,22.98
2022-10-13T07:24:38.798Z,22.37
2022-10-13T07:53:07.365Z,19.73
2022-10-13T07:56:12.583Z,19.67
2022-10-13T08:03:00.140Z,18.58
2022-10-13T08:06:05.448Z,18.87
2022-10-13T08:20:40.972Z,19.23
2022-10-13T08:27:50.759Z,18.08
2022-10-13T08:31:02.810Z,18.52
2022-10-13T08:34:05.453Z,18.67
2022-10-13T08:37:15.930Z,18.00
2022-10-13T08:40:22.994Z,18.37
2022-10-13T08:43:26.357Z,18.95
2022-10-13T08:46:39.747Z,18.62
2022-10-13T08:49:43.366Z,18.62
2022-10-13T09:00:23.209Z,18.80
2022-10-13T09:03:29.106Z,19.23
2022-10-13T09:06:47.048Z,16.52
2022-10-13T09:09:52.910Z,17.23
2022-10-13T09:12:56.222Z,15.63
2022-10-13T09:15:59.052Z,16.30
2022-10-13T09:19:25.718Z,15.45
2022-10-13T09:22:30.331Z,14.70
2022-10-13T09:25:42.542Z,13.93
2022-10-13T09:28:45.588Z,13.77
2022-10-13T09:35:26.219Z,12.77
2022-10-13T09:38:35.589Z,13.05
2022-10-13T09:41:39.485Z,12.73
2022-10-13T09:44:42.185Z,13.40
2022-10-13T09:48:07.516Z,12.55
2022-10-13T09:51:31.123Z,13.80
2022-10-13T09:54:42.450Z,12.73
2022-10-13T09:57:49.386Z,13.30
2022-10-13T10:00:53.827Z,11.88
2022-10-13T10:04:09.909Z,13.48
2022-10-13T10:07:27.739Z,12.88
2022-10-13T10:10:35.775Z,12.55
2022-10-13T10:13:46.057Z,11.65
2022-10-13T10:17:14.275Z,11.40
2022-10-13T10:20:16.819Z,10.77
2022-10-13T10:23:27.556Z,11.15
2022-10-13T10:26:56.037Z,11.40
2022-10-13T10:30:07.027Z,11.07
2022-10-13T10:33:15.308Z,11.15
2022-10-13T10:36:41.558Z,11.90
2022-10-13T10:39:53.265Z,10.85
2022-10-13T10:43:08.307Z,10.70
2022-10-13T10:46:18.186Z,11.80
2022-10-13T10:49:25.865Z,11.70
2022-10-13T10:52:43.862Z,10.85
2022-10-13T10:56:11.887Z,12.02
2022-10-13T10:59:17.767Z,10.38
2022-10-13T11:02:39.061Z,9.20
2022-10-13T11:06:03.662Z,9.10
2022-10-13T11:09:11.009Z,9.73
2022-10-13T11:12:19.368Z,9.90
2022-10-13T11:15:28.706Z,9.15
2022-10-13T11:18:59.254Z,11.48
2022-10-13T11:22:03.414Z,10.73
2022-10-13T11:25:42.157Z,10.10
2022-10-13T11:28:47.085Z,9.88
2022-10-13T11:31:54.240Z,9.60
2022-10-13T11:35:04.627Z,9.73
2022-10-13T11:38:23.591Z,9.40
2022-10-13T11:41:32.031Z,9.50
2022-10-13T11:45:01.512Z,8.07
2022-10-13T11:48:32.100Z,9.60
2022-10-13T11:51:37.205Z,8.85
2022-10-13T11:54:49.749Z,9.07
2022-10-13T11:58:07.116Z,9.40
2022-10-13T12:01:15.179Z,9.20
2022-10-13T12:04:22.050Z,9.95
2022-10-13T12:07:25.850Z,10.35
2022-10-13T12:10:34.816Z,10.30
2022-10-13T12:13:38.512Z,10.55
2022-10-13T12:16:53.522Z,9.77
2022-10-13T12:20:04.744Z,9.25
2022-10-13T12:23:17.168Z,9.35
2022-10-13T12:26:23.002Z,9.20
2022-10-13T12:29:28.902Z,9.95
2022-10-13T12:32:35.975Z,10.15
2022-10-13T12:35:38.702Z,9.88
2022-10-13T12:38:47.243Z,10.52
2022-10-13T12:41:54.349Z,9.85
2022-10-13T12:44:59.274Z,10.07
2022-10-13T12:48:01.988Z,11.00
2022-10-13T12:51:20.096Z,11.02
2022-10-13T12:54:28.720Z,10.55
2022-10-13T12:57:38.671Z,11.10
2022-10-13T13:00:41.705Z,11.10
2022-10-13T13:03:44.691Z,11.88
2022-10-13T13:06:58.900Z,11.52
2022-10-13T13:10:07.510Z,10.98
2022-10-13T13:13:15.061Z,11.63
2022-10-13T13:16:21.049Z,11.35
2022-10-13T13:19:23.763Z,11.05
2022-10-13T13:22:26.476Z,12.27
2022-10-13T13:25:29.197Z,11.23
2022-10-13T13:28:32.746Z,10.60
2022-10-13T13:31:38.780Z,11.18
2022-10-13T13:34:41.971Z,11.52
2022-10-13T13:37:50.493Z,10.50
2022-10-13T13:40:52.984Z,11.07
2022-10-13T13:43:55.659Z,10.13
2022-10-13T13:46:58.010Z,10.50
2022-10-13T13:50:00.790Z,10.45
2022-10-13T13:53:04.351Z,10.60
2022-10-13T13:56:12.848Z,10.52
2022-10-13T13:59:15.955Z,10.65
2022-10-13T14:02:22.240Z,10.20
2022-10-13T14:05:24.985Z,9.50
2022-10-13T14:08:30.954Z,9.90
2022-10-13T14:11:34.109Z,10.60
2022-10-13T14:14:36.520Z,11.10
2022-10-13T14:17:39.224Z,10.65
2022-10-13T14:20:42.241Z,10.90
2022-10-13T14:23:47.066Z,10.38
2022-10-13T14:26:49.571Z,10.52
2022-10-13T14:29:52.350Z,10.85
2022-10-13T14:32:54.710Z,10.82
2022-10-13T14:36:04.702Z,11.23
2022-10-13T14:39:07.198Z,10.57
2022-10-13T14:42:10.265Z,11.27
2022-10-13T14:45:13.318Z,11.10
2022-10-13T14:48:16.082Z,10.77
2022-10-13T14:51:18.566Z,11.07
2022-10-13T14:54:21.243Z,11.10
2022-10-13T14:57:23.959Z,11.02
2022-10-13T15:00:27.994Z,11.45
2022-10-13T15:03:30.745Z,10.48
2022-10-13T15:06:34.108Z,10.70
2022-10-13T15:09:52.726Z,11.57
2022-10-13T15:12:59.681Z,11.90
2022-10-13T15:16:04.422Z,11.82
2022-10-13T15:19:07.185Z,11.27
2022-10-13T15:22:09.606Z,10.85
2022-10-13T15:25:12.371Z,11.12
2022-10-13T15:28:14.920Z,10.73
2022-10-13T15:31:19.516Z,10.50
2022-10-13T15:34:21.894Z,10.23
2022-10-13T15:37:24.720Z,10.88
